Nearby METAR Reports

 

KLOT - Romeoville/Chi, Illinois, USA
Distance from station: N 3mi, 5km
Updated: Tue, 21-May-2019 11:55am CDT
Overcast
Overcast
 Wind from E
Wind: E 13 mph , 20 km/h
Temperature: 50°F , 10°C
Wind Chill: 45°F , 7°C
Dew Point: 46°F , 8°C
Humidity: 88%
Barometer: 30.12 inHg , 1020 hPa
Clouds: Overcast
Visibility: 10 miles , 16 km
Cloud details: Partly cloudy 1400 ft
Mostly cloudy 4100 ft
Overcast 6000 ft
2019/05/21 16:55 KLOT 211655Z AUTO 09011KT 10SM SCT014 BKN041 OVC060 10/08 A3012 RMK AO2 T00960079
KJOT - Joliet, Illinois, USA
Distance from station: WSW 5mi, 7km
Updated: Tue, 21-May-2019 11:55am CDT
Overcast
Overcast
 Wind from E
Wind: E 14 mph , 22 km/h
Temperature: 52°F , 11°C
Dew Point: 50°F , 10°C
Humidity: 94%
Barometer: 30.10 inHg , 1019.3 hPa
Clouds: Overcast
Visibility: 10 miles , 16 km
Cloud details: Mostly cloudy 1700 ft
Mostly cloudy 2300 ft
Overcast 7000 ft
2019/05/21 16:55 KJOT 211655Z AUTO 08012KT 10SM BKN017 BKN023 OVC070 11/10 A3010 RMK AO2 T01100095
 
KC09 - Morris-Washburn, Illinois, USA
Distance from station: WSW 18mi, 29km
Updated: Tue, 21-May-2019 11:55am CDT
Overcast
Overcast
 Wind from E
Wind: E 14 mph , 22 km/h, Gust: 21 mph , 33 km/h
Temperature: 50°F , 10°C
Wind Chill: 45°F , 7°C
Dew Point: 46°F , 8°C
Humidity: 88%
Barometer: 30.08 inHg , 1018.6 hPa
Clouds: Overcast
Visibility: 10 miles , 16 km
Cloud details: Mostly cloudy 1700 ft
Mostly cloudy 4500 ft
Overcast 7000 ft
2019/05/21 16:55 KC09 211655Z AUTO 08012G18KT 10SM BKN017 BKN045 OVC070 10/08 A3008 RMK AO2 T01020084
KARR - Chicago/Aurora, Illinois, USA
Distance from station: NW 24mi, 39km
Updated: Tue, 21-May-2019 11:52am CDT
Overcast
Overcast
 Wind from E
Wind: E 14 mph , 22 km/h
Temperature: 48°F , 9°C
Wind Chill: 42°F , 6°C
Dew Point: 45°F , 7°C
Humidity: 87%
Barometer: 30.11 inHg , 1019.6 hPa
Clouds: Overcast
Visibility: 9 miles , 14 km
Cloud details: Mostly cloudy 4700 ft
Overcast 6000 ft
2019/05/21 16:52 KARR 211652Z 08012KT 9SM BKN047 OVC060 09/07 A3011 RMK AO2 RAB26E51 SLP197 P0001 T00940072
 
KMDW - Chicago, Illinois, USA
Distance from station: NE 25mi, 39km
Updated: Tue, 21-May-2019 11:53am CDT
Light rain, Overcast
Light rain, Overcast
 Wind from ENE
Wind: ENE 14 mph , 22 km/h
Temperature: 48°F , 9°C
Wind Chill: 42°F , 6°C
Dew Point: 45°F , 7°C
Humidity: 87%
Barometer: 30.14 inHg , 1020.7 hPa
Summary: Light rain
Clouds: Overcast
Visibility: 7 miles , 11 km
Cloud details: Partly cloudy 1000 ft
Mostly cloudy 5500 ft
Overcast 7000 ft
2019/05/21 16:53 KMDW 211653Z 07012KT 7SM -RA SCT010 BKN055 OVC070 09/07 A3014 RMK AO2 RAB41 SLP210 VIS N-NE 4 P0000 T00890072
KDPA - Chicago/Dupage, Illinois, USA
Distance from station: NNW 26mi, 42km
Updated: Tue, 21-May-2019 12:08pm CDT
Light rain, Overcast
Light rain, Overcast
 Wind from E
Wind: E 10 mph , 17 km/h, Gust: 22 mph , 35 km/h
Temperature: 50°F , 10°C
Wind Chill: 46°F , 8°C
Dew Point: 45°F , 7°C
Humidity: 82%
Barometer: 30.12 inHg , 1020 hPa
Summary: Light rain
Clouds: Overcast
Visibility: 2 miles , 3 km
Cloud details: Partly cloudy 900 ft
Mostly cloudy 1700 ft
Overcast 5500 ft
2019/05/21 17:08 KDPA 211708Z 08009G19KT 2SM -RA SCT009 BKN017 OVC055 10/07 A3012 RMK AO2 P0001 T01000072
 
KIGQ - Chicago/Lansing, Illinois, USA
Distance from station: E 30mi, 48km
Updated: Tue, 21-May-2019 11:55am CDT
Overcast
Overcast
 Wind from E
Wind: E 8 mph , 13 km/h
Temperature: 50°F , 10°C
Wind Chill: 47°F , 8°C
Dew Point: 46°F , 8°C
Humidity: 88%
Barometer: 30.13 inHg , 1020.3 hPa
Clouds: Overcast
Visibility: 10 miles , 16 km
Cloud details: Mostly cloudy 1600 ft
Overcast 8000 ft
2019/05/21 16:55 KIGQ 211655Z AUTO 08007KT 10SM BKN016 OVC080 10/08 A3013 RMK AO2 T01000081
KORD - Chicago O'hare, Illinois, USA
Distance from station: NNE 31mi, 50km
Updated: Tue, 21-May-2019 11:58am CDT
Light rain, Mist, Overcast
Light rain, Mist, Overcast
 Wind from E
Wind: E 13 mph , 20 km/h
Temperature: 48°F , 9°C
Wind Chill: 43°F , 6°C
Dew Point: 45°F , 7°C
Humidity: 87%
Barometer: 30.15 inHg , 1021 hPa
Summary: Light rain, Mist
Clouds: Overcast
Visibility: 5 miles , 8 km
Cloud details: Mostly cloudy 1200 ft
Overcast 6000 ft
2019/05/21 16:58 KORD 211658Z 08011KT 5SM -RA BR BKN012 OVC060 09/07 A3015 RMK AO2 P0000 T00890067
 
KGYY - Gary Regional, Indiana, USA
Distance from station: E 36mi, 58km
Updated: Tue, 21-May-2019 11:45am CDT
Overcast
Overcast
 Wind from E
Wind: E 12 mph , 19 km/h
Temperature: 52°F , 11°C
Dew Point: 46°F , 8°C
Humidity: 82%
Barometer: 30.14 inHg , 1020.7 hPa
Clouds: Overcast
Visibility: 8 miles , 13 km
Cloud details: Partly cloudy 2000 ft
Overcast 9000 ft
2019/05/21 16:45 KGYY 211645Z 10010KT 8SM SCT020 OVC090 11/08 A3014
KIKK - Kankakee, Illinois, USA
Distance from station: SSE 36mi, 58km
Updated: Tue, 21-May-2019 11:55am CDT
Overcast
Overcast
 Wind from ESE
Wind: ESE 14 mph , 22 km/h
Temperature: 52°F , 11°C
Dew Point: 46°F , 8°C
Humidity: 82%
Barometer: 30.09 inHg , 1019 hPa
Clouds: Overcast
Visibility: 10 miles , 16 km
Cloud details: Overcast 7000 ft
2019/05/21 16:55 KIKK 211655Z AUTO 11012KT 10SM OVC070 11/08 A3009 RMK AO2 T01100075
 
KDKB - De Kalb, Illinois, USA
Distance from station: NW 40mi, 65km
Updated: Tue, 21-May-2019 11:55am CDT
Light rain, Overcast
Light rain, Overcast
 Wind from E
Wind: E 16 mph , 26 km/h
Temperature: 48°F , 9°C
Wind Chill: 42°F , 6°C
Dew Point: 48°F , 9°C
Humidity: 100%
Barometer: 30.12 inHg , 1020 hPa
Summary: Light rain
Clouds: Overcast
Visibility: 2 miles , 3 km
Cloud details: Overcast 1200 ft
2019/05/21 16:55 KDKB 211655Z AUTO 10014KT 2SM -RA OVC012 09/09 A3012 RMK AO2 P0001 T00910086
KPWK - Palwaukee, Illinois, USA
Distance from station: NNE 41mi, 65km
Updated: Tue, 21-May-2019 11:52am CDT
Light rain, Overcast
Light rain, Overcast
 Wind from E
Wind: E 6 mph , 9 km/h
Temperature: 50°F , 10°C
Wind Chill: 48°F , 9°C
Dew Point: 43°F , 6°C
Humidity: 76%
Barometer: 30.16 inHg , 1021.3 hPa
Summary: Light rain
Clouds: Overcast
Visibility: 5 miles , 8 km
Cloud details: Few Clouds 1900 ft
Overcast 7000 ft
2019/05/21 16:52 KPWK 211652Z 09005KT 5SM -RA FEW019 OVC070 10/06 A3016 RMK AO2 RAB44 SLP217 P0000 T01000056